createdAt,value
2022-08-26T00:02:05.763Z,7.20
2022-08-26T00:04:34.175Z,6.90
2022-08-26T00:07:02.116Z,6.37
2022-08-26T00:09:32.857Z,6.70
2022-08-26T00:12:05.492Z,7.27
2022-08-26T00:14:33.366Z,7.10
2022-08-26T00:17:01.193Z,6.33
2022-08-26T00:19:29.284Z,5.90
2022-08-26T00:21:57.289Z,6.37
2022-08-26T00:24:25.505Z,6.27
2022-08-26T00:26:55.031Z,6.57
2022-08-26T00:29:22.866Z,7.00
2022-08-26T00:31:51.039Z,6.70
2022-08-26T00:34:19.335Z,6.47
2022-08-26T00:36:50.878Z,6.50
2022-08-26T00:39:20.140Z,6.83
2022-08-26T00:41:49.957Z,7.10
2022-08-26T00:44:19.498Z,7.70
2022-08-26T00:46:52.408Z,6.90
2022-08-26T00:49:28.614Z,6.20
2022-08-26T00:51:59.966Z,6.93
2022-08-26T00:54:31.689Z,6.10
2022-08-26T00:57:03.948Z,6.27
2022-08-26T00:59:33.846Z,7.20
2022-08-26T01:02:02.900Z,6.83
2022-08-26T01:04:32.742Z,7.30
2022-08-26T01:07:01.241Z,6.37
2022-08-26T01:09:29.693Z,6.70
2022-08-26T01:12:01.189Z,6.63
2022-08-26T01:14:34.661Z,6.00
2022-08-26T01:17:07.334Z,6.30
2022-08-26T01:19:42.220Z,5.33
2022-08-26T01:22:13.331Z,6.80
2022-08-26T01:24:43.373Z,6.20
2022-08-26T01:27:16.157Z,6.57
2022-08-26T01:29:46.204Z,7.20
2022-08-26T01:32:23.240Z,7.47
2022-08-26T01:34:51.608Z,5.93
2022-08-26T01:37:22.878Z,6.83
2022-08-26T01:39:54.567Z,6.73
2022-08-26T01:42:25.644Z,6.70
2022-08-26T01:45:00.250Z,7.50
2022-08-26T01:47:31.702Z,6.87
2022-08-26T01:50:02.884Z,6.67
2022-08-26T01:52:33.646Z,6.50
2022-08-26T01:55:03.166Z,7.27
2022-08-26T01:57:31.671Z,6.60
2022-08-26T02:00:02.379Z,7.43
2022-08-26T02:02:30.614Z,7.33
2022-08-26T02:05:02.602Z,6.90
2022-08-26T02:07:31.306Z,6.50
2022-08-26T02:10:02.489Z,6.33
2022-08-26T02:12:32.191Z,7.10
2022-08-26T02:15:03.076Z,6.00
2022-08-26T02:17:40.338Z,6.30
2022-08-26T02:20:13.424Z,6.63
2022-08-26T02:22:45.239Z,6.40
2022-08-26T02:25:22.896Z,6.40
2022-08-26T02:27:51.017Z,6.30
2022-08-26T02:30:21.625Z,6.63
2022-08-26T02:32:49.774Z,6.67
2022-08-26T02:35:20.360Z,6.40
2022-08-26T02:37:49.533Z,7.20
2022-08-26T02:40:22.396Z,5.93
2022-08-26T02:43:01.960Z,6.87
2022-08-26T02:45:30.363Z,6.20
2022-08-26T02:47:58.676Z,6.20
2022-08-26T02:50:28.750Z,7.57
2022-08-26T02:52:56.702Z,6.63
2022-08-26T02:55:27.017Z,6.67
2022-08-26T02:57:54.824Z,7.27
2022-08-26T03:00:23.801Z,6.63
2022-08-26T03:02:51.753Z,6.50
2022-08-26T03:05:21.976Z,7.37
2022-08-26T03:07:52.523Z,6.90
2022-08-26T03:10:22.313Z,7.23
2022-08-26T03:12:52.197Z,6.60
2022-08-26T03:15:20.901Z,6.27
2022-08-26T03:17:50.261Z,6.87
2022-08-26T03:20:19.001Z,6.80
2022-08-26T03:22:47.545Z,5.97
2022-08-26T03:25:18.138Z,7.27
2022-08-26T03:27:46.252Z,6.60
2022-08-26T03:30:34.631Z,7.00
2022-08-26T03:33:03.012Z,6.47
2022-08-26T03:35:31.962Z,6.63
2022-08-26T03:38:00.327Z,6.67
2022-08-26T03:40:30.170Z,7.73
2022-08-26T03:42:58.492Z,7.87
2022-08-26T03:45:29.269Z,7.10
2022-08-26T03:47:57.826Z,8.57
2022-08-26T03:50:26.654Z,6.50
2022-08-26T03:52:55.584Z,7.00
2022-08-26T03:55:25.749Z,7.70
2022-08-26T03:57:55.768Z,6.30
2022-08-26T04:00:24.066Z,7.17
2022-08-26T04:02:53.723Z,7.60
2022-08-26T04:05:23.538Z,7.87
2022-08-26T04:07:52.034Z,7.70
2022-08-26T04:10:23.947Z,7.63
2022-08-26T04:12:58.927Z,7.23
2022-08-26T04:15:27.923Z,7.97
2022-08-26T04:17:57.505Z,8.80
2022-08-26T04:20:25.950Z,9.00
2022-08-26T04:22:54.079Z,8.40
2022-08-26T04:25:22.481Z,8.57
2022-08-26T04:27:52.235Z,8.23
2022-08-26T04:30:21.118Z,8.10
2022-08-26T04:32:49.468Z,7.80
2022-08-26T04:35:20.917Z,7.53
2022-08-26T04:37:53.441Z,7.77
2022-08-26T04:40:21.730Z,8.00
2022-08-26T04:42:50.169Z,8.00
2022-08-26T04:45:19.033Z,7.80
2022-08-26T04:47:54.458Z,7.50
2022-08-26T04:50:25.640Z,7.90
2022-08-26T04:52:54.988Z,7.50
2022-08-26T04:55:38.253Z,7.90
2022-08-26T04:58:10.372Z,8.60
2022-08-26T05:00:43.099Z,8.57
2022-08-26T05:03:10.980Z,8.70
2022-08-26T05:05:42.374Z,9.43
2022-08-26T05:08:11.185Z,9.40
2022-08-26T05:10:43.642Z,9.77
2022-08-26T05:13:15.123Z,8.77
2022-08-26T05:15:44.154Z,8.30
2022-08-26T05:18:13.818Z,9.57
2022-08-26T05:20:45.014Z,9.07
2022-08-26T05:23:15.659Z,9.80
2022-08-26T05:25:46.501Z,9.83
2022-08-26T05:28:17.076Z,10.30
2022-08-26T05:30:45.319Z,10.23
2022-08-26T05:33:13.994Z,11.57
2022-08-26T05:35:44.168Z,10.93
2022-08-26T05:38:17.857Z,9.83
2022-08-26T05:40:48.934Z,9.90
2022-08-26T05:43:20.034Z,12.30
2022-08-26T05:45:50.370Z,10.60
2022-08-26T05:48:24.328Z,10.83
2022-08-26T05:50:54.533Z,10.90
2022-08-26T05:53:24.030Z,10.07
2022-08-26T05:55:55.718Z,10.47
2022-08-26T05:58:24.621Z,10.93
2022-08-26T06:01:03.104Z,10.20
2022-08-26T06:03:34.289Z,10.77
2022-08-26T06:06:06.359Z,11.00
2022-08-26T06:08:34.797Z,11.43
2022-08-26T06:11:05.685Z,10.70
2022-08-26T06:13:35.083Z,10.47
2022-08-26T06:16:07.235Z,9.63
2022-08-26T06:18:37.969Z,10.50
2022-08-26T06:21:15.837Z,10.60
2022-08-26T06:24:02.294Z,11.20
2022-08-26T06:26:30.673Z,10.77
2022-08-26T06:28:59.184Z,11.17
2022-08-26T06:31:27.833Z,10.53
2022-08-26T06:33:58.186Z,10.70
2022-08-26T06:36:30.469Z,9.60
2022-08-26T06:39:03.084Z,9.53
2022-08-26T06:41:33.519Z,9.30
2022-08-26T06:44:01.894Z,9.67
2022-08-26T06:46:30.563Z,10.67
2022-08-26T06:48:59.216Z,10.30
2022-08-26T06:51:30.616Z,8.70
2022-08-26T06:54:00.684Z,9.97
2022-08-26T06:56:34.029Z,8.87
2022-08-26T06:59:02.254Z,9.00
2022-08-26T07:01:32.836Z,8.07
2022-08-26T07:04:03.496Z,9.10
2022-08-26T07:06:39.194Z,9.23
2022-08-26T07:09:10.001Z,9.03
2022-08-26T07:11:39.882Z,8.60
2022-08-26T07:14:08.962Z,8.47
2022-08-26T07:16:36.925Z,8.50
2022-08-26T07:19:11.067Z,9.53
2022-08-26T07:21:41.906Z,8.60
2022-08-26T07:24:11.194Z,8.50
2022-08-26T07:26:43.061Z,8.57
2022-08-26T07:29:12.269Z,7.67
2022-08-26T07:31:42.695Z,7.70
2022-08-26T07:34:11.655Z,7.47
2022-08-26T07:36:41.374Z,8.10
2022-08-26T07:39:10.002Z,7.80
2022-08-26T07:41:37.860Z,7.47
2022-08-26T07:44:07.217Z,7.53
2022-08-26T07:46:36.334Z,6.90
2022-08-26T07:49:04.381Z,7.13
2022-08-26T07:51:33.153Z,7.63
2022-08-26T07:54:02.380Z,6.43
2022-08-26T07:56:30.355Z,7.00
2022-08-26T07:58:58.225Z,6.37
2022-08-26T08:01:27.118Z,6.60
2022-08-26T08:03:57.530Z,6.20
2022-08-26T08:06:28.090Z,5.70
2022-08-26T08:08:57.015Z,6.47
2022-08-26T08:11:27.152Z,6.00
2022-08-26T08:13:56.390Z,6.70
2022-08-26T08:16:25.363Z,5.33
2022-08-26T08:18:54.361Z,5.57
2022-08-26T08:21:25.227Z,6.67
2022-08-26T08:23:55.265Z,6.00
2022-08-26T08:26:24.561Z,6.50
2022-08-26T08:28:55.445Z,5.97
2022-08-26T08:31:54.497Z,5.40
2022-08-26T08:34:14.016Z,6.00
2022-08-26T08:36:41.787Z,5.93
2022-08-26T08:39:09.641Z,6.33
2022-08-26T08:41:57.196Z,6.03
2022-08-26T08:47:04.761Z,6.27
2022-08-26T08:49:35.153Z,5.53
2022-08-26T08:52:09.151Z,6.03
2022-08-26T08:54:39.345Z,7.00
2022-08-26T08:57:15.387Z,4.83
2022-08-26T08:59:54.635Z,5.40
2022-08-26T09:02:30.849Z,5.27
2022-08-26T09:05:10.192Z,5.97
2022-08-26T09:07:47.643Z,6.00
2022-08-26T09:10:34.836Z,6.60
2022-08-26T09:13:06.392Z,7.33
2022-08-26T09:15:47.615Z,6.83
2022-08-26T09:18:30.799Z,7.57
2022-08-26T09:21:03.294Z,8.10
2022-08-26T09:23:33.899Z,7.33
2022-08-26T09:26:14.003Z,7.00
2022-08-26T09:28:43.657Z,8.17
2022-08-26T09:31:19.182Z,7.70
2022-08-26T09:33:47.430Z,7.20
2022-08-26T09:36:22.744Z,8.00
2022-08-26T09:38:53.528Z,7.30
2022-08-26T09:41:25.839Z,6.70
2022-08-26T09:44:15.813Z,7.10
2022-08-26T09:46:56.324Z,8.53
2022-08-26T09:49:28.609Z,7.63
2022-08-26T09:52:16.325Z,7.10
2022-08-26T09:54:46.119Z,7.20
2022-08-26T09:57:18.159Z,6.40
2022-08-26T09:59:46.713Z,6.80
2022-08-26T10:02:39.358Z,6.57
2022-08-26T10:05:13.714Z,5.60
2022-08-26T10:07:46.207Z,6.50
2022-08-26T10:10:19.520Z,7.20
2022-08-26T10:13:03.042Z,6.67
2022-08-26T10:15:40.485Z,5.80
2022-08-26T10:18:23.299Z,6.07
2022-08-26T10:20:57.135Z,5.20
2022-08-26T10:23:29.312Z,4.50
2022-08-26T10:26:02.593Z,5.33
2022-08-26T10:28:36.360Z,5.47
2022-08-26T10:31:09.793Z,5.17
2022-08-26T10:33:40.555Z,4.70
2022-08-26T10:36:46.953Z,5.27
2022-08-26T10:39:27.192Z,5.10
2022-08-26T10:41:59.824Z,5.30
2022-08-26T10:44:29.084Z,4.73
2022-08-26T10:47:04.285Z,4.33
2022-08-26T10:49:34.545Z,3.70
2022-08-26T10:52:12.275Z,3.60
2022-08-26T10:54:49.747Z,4.37
2022-08-26T10:57:24.533Z,4.20
2022-08-26T11:00:00.075Z,4.90
2022-08-26T11:02:47.061Z,4.70
2022-08-26T11:05:20.279Z,4.70
2022-08-26T11:07:52.557Z,5.00
2022-08-26T11:10:58.885Z,4.20
2022-08-26T11:14:00.960Z,4.03
2022-08-26T11:16:43.558Z,3.97
2022-08-26T11:19:58.844Z,4.27
2022-08-26T11:22:28.621Z,3.97
2022-08-26T11:25:12.778Z,4.23
2022-08-26T11:28:05.491Z,4.40
2022-08-26T11:30:57.496Z,4.70
2022-08-26T11:33:59.579Z,4.10
2022-08-26T11:36:59.608Z,4.17
2022-08-26T11:39:36.801Z,4.57
2022-08-26T11:42:20.224Z,5.53
2022-08-26T11:44:49.813Z,4.60
2022-08-26T11:47:25.724Z,4.60
2022-08-26T11:50:11.877Z,3.90
2022-08-26T11:52:40.107Z,4.33
2022-08-26T11:55:12.890Z,4.50
2022-08-26T11:57:45.355Z,4.43
2022-08-26T12:00:22.515Z,4.40
2022-08-26T12:02:52.566Z,3.93
2022-08-26T12:05:24.809Z,4.30
2022-08-26T12:07:55.553Z,4.40
2022-08-26T12:10:33.796Z,4.40
2022-08-26T12:13:03.198Z,4.00
2022-08-26T12:15:32.613Z,4.00
2022-08-26T12:18:17.961Z,4.47
2022-08-26T12:20:54.097Z,4.37
2022-08-26T12:23:24.666Z,5.53
2022-08-26T12:26:03.546Z,4.70
2022-08-26T12:28:32.632Z,4.87
2022-08-26T12:31:02.790Z,4.70
2022-08-26T12:33:31.169Z,4.10
2022-08-26T12:36:00.609Z,5.10
2022-08-26T12:38:29.003Z,5.43
2022-08-26T12:40:58.861Z,4.37
2022-08-26T12:43:44.152Z,4.03
2022-08-26T12:46:15.271Z,5.20
2022-08-26T12:48:48.289Z,4.60
2022-08-26T12:51:22.930Z,5.30
2022-08-26T12:53:50.965Z,4.63
2022-08-26T12:56:26.424Z,4.10
2022-08-26T12:59:11.204Z,4.43
2022-08-26T13:01:44.026Z,4.77
2022-08-26T13:04:37.413Z,4.37
2022-08-26T13:07:16.456Z,4.43
2022-08-26T13:09:44.256Z,5.80
2022-08-26T13:12:23.513Z,4.57
2022-08-26T13:14:51.509Z,5.00
2022-08-26T13:17:19.377Z,4.10
2022-08-26T13:19:47.234Z,4.00
2022-08-26T13:22:19.008Z,3.43
2022-08-26T13:24:46.952Z,3.60
2022-08-26T13:27:20.350Z,3.60
2022-08-26T13:29:48.229Z,3.30
2022-08-26T13:32:16.224Z,3.27
2022-08-26T13:34:48.162Z,3.57
2022-08-26T13:37:22.086Z,4.20
2022-08-26T13:39:57.259Z,4.27
2022-08-26T13:42:26.616Z,3.60
2022-08-26T13:44:57.966Z,3.13
2022-08-26T13:47:27.669Z,3.37
2022-08-26T13:49:56.162Z,3.60
2022-08-26T13:52:30.005Z,3.43
2022-08-26T13:54:59.100Z,3.90
2022-08-26T13:57:29.777Z,3.60
2022-08-26T13:59:59.203Z,3.50
2022-08-26T14:02:28.645Z,3.23
2022-08-26T14:04:56.450Z,2.90
2022-08-26T14:07:24.739Z,3.27
2022-08-26T14:09:52.699Z,3.57
2022-08-26T14:12:20.605Z,3.90
2022-08-26T14:14:50.206Z,4.03
2022-08-26T14:17:21.222Z,4.00
2022-08-26T14:19:50.668Z,3.73
2022-08-26T14:22:21.034Z,3.27
2022-08-26T14:24:50.069Z,3.33
2022-08-26T14:27:17.932Z,3.40
2022-08-26T14:29:45.764Z,3.63
2022-08-26T14:32:21.797Z,4.23
2022-08-26T14:34:50.429Z,3.70
2022-08-26T14:37:18.818Z,3.90
2022-08-26T14:39:47.160Z,4.20
2022-08-26T14:42:16.925Z,3.70
2022-08-26T14:44:48.316Z,4.77
2022-08-26T14:47:17.981Z,3.70
2022-08-26T14:49:45.771Z,3.83
2022-08-26T14:52:13.785Z,5.10
2022-08-26T14:54:40.636Z,4.27
2022-08-26T14:57:10.399Z,5.07
2022-08-26T14:59:40.761Z,4.50
2022-08-26T15:02:13.800Z,4.80
2022-08-26T15:04:43.182Z,5.17
2022-08-26T15:07:12.644Z,5.30
2022-08-26T15:09:40.798Z,4.53
2022-08-26T15:12:08.955Z,4.83
2022-08-26T15:14:36.777Z,5.63
2022-08-26T15:17:05.241Z,5.10
2022-08-26T15:19:33.142Z,5.50
2022-08-26T15:22:02.355Z,4.90
2022-08-26T15:24:30.228Z,5.53
2022-08-26T15:26:58.556Z,5.03
2022-08-26T15:29:26.405Z,4.87
2022-08-26T15:31:57.182Z,4.60
2022-08-26T15:34:25.433Z,5.20
2022-08-26T15:36:53.310Z,4.90
2022-08-26T15:39:22.818Z,4.53
2022-08-26T15:41:50.861Z,4.57
2022-08-26T15:44:19.593Z,5.27
2022-08-26T15:46:50.024Z,4.83
2022-08-26T15:49:18.660Z,4.97
2022-08-26T15:51:47.853Z,4.33
2022-08-26T15:54:17.480Z,4.23
2022-08-26T15:56:48.972Z,4.97
2022-08-26T15:59:17.150Z,5.23
2022-08-26T16:01:45.541Z,4.70
2022-08-26T16:04:13.919Z,5.00
2022-08-26T16:06:43.485Z,4.27
2022-08-26T16:09:11.925Z,4.50
2022-08-26T16:11:39.920Z,5.07
2022-08-26T16:14:09.693Z,4.77
2022-08-26T16:16:40.186Z,4.00
2022-08-26T16:19:08.742Z,4.20
2022-08-26T16:21:36.637Z,4.37
2022-08-26T16:24:06.374Z,4.80
2022-08-26T16:26:36.410Z,4.10
2022-08-26T16:29:14.711Z,4.27
2022-08-26T16:31:44.145Z,4.47
2022-08-26T16:34:12.332Z,3.70
2022-08-26T16:36:40.912Z,4.67
2022-08-26T16:39:09.581Z,4.13
2022-08-26T16:41:37.920Z,5.13
2022-08-26T16:44:07.103Z,4.20
2022-08-26T16:46:36.307Z,5.00
2022-08-26T16:49:05.936Z,5.33
2022-08-26T16:51:38.065Z,5.10
2022-08-26T16:54:07.652Z,5.70
2022-08-26T16:56:36.025Z,4.93
2022-08-26T16:59:04.044Z,5.17
2022-08-26T17:01:31.971Z,5.27
2022-08-26T17:03:59.955Z,5.33
2022-08-26T17:06:29.666Z,5.00
2022-08-26T17:08:57.515Z,6.07
2022-08-26T17:11:25.349Z,5.40
2022-08-26T17:13:53.260Z,5.33
2022-08-26T17:16:26.239Z,5.70
2022-08-26T17:18:55.912Z,5.00
2022-08-26T17:21:23.928Z,5.10
2022-08-26T17:23:53.825Z,5.20
2022-08-26T17:26:21.943Z,5.87
2022-08-26T17:28:50.394Z,5.17
2022-08-26T17:31:18.774Z,5.27
2022-08-26T17:33:50.693Z,5.70
2022-08-26T17:36:22.506Z,5.17
2022-08-26T17:38:50.576Z,5.07
2022-08-26T17:41:23.384Z,5.80
2022-08-26T17:43:51.259Z,5.60
2022-08-26T17:46:19.153Z,5.00
2022-08-26T17:48:48.262Z,6.00
2022-08-26T17:51:19.204Z,5.67
2022-08-26T17:53:47.894Z,5.80
2022-08-26T17:56:18.726Z,6.13
2022-08-26T17:58:51.634Z,5.30
2022-08-26T18:01:20.241Z,5.33
2022-08-26T18:03:48.184Z,5.37
2022-08-26T18:06:16.308Z,5.47
2022-08-26T18:08:44.796Z,6.03
2022-08-26T18:11:15.697Z,4.97
2022-08-26T18:13:45.842Z,6.00
2022-08-26T18:16:18.482Z,5.47
2022-08-26T18:18:47.413Z,5.70
2022-08-26T18:21:16.712Z,7.43
2022-08-26T18:23:45.573Z,6.37
2022-08-26T18:26:17.577Z,5.80
2022-08-26T18:28:45.469Z,5.83
2022-08-26T18:31:13.632Z,5.90
2022-08-26T18:33:43.773Z,5.30
2022-08-26T18:36:18.333Z,5.43
2022-08-26T18:38:46.466Z,5.37
2022-08-26T18:41:14.346Z,5.33
2022-08-26T18:43:42.169Z,6.00
2022-08-26T18:46:11.308Z,6.00
2022-08-26T18:48:40.830Z,4.80
2022-08-26T18:51:15.978Z,4.47
2022-08-26T18:53:43.786Z,4.00
2022-08-26T18:56:13.255Z,3.40
2022-08-26T18:58:44.276Z,3.77
2022-08-26T19:01:13.031Z,2.83
2022-08-26T19:03:41.155Z,3.00
2022-08-26T19:06:14.669Z,3.97
2022-08-26T19:08:44.486Z,2.43
2022-08-26T19:11:13.964Z,3.27
2022-08-26T19:13:42.085Z,1.20
2022-08-26T19:16:16.146Z,1.50
2022-08-26T19:18:44.033Z,2.50
2022-08-26T19:21:13.899Z,2.33
2022-08-26T19:23:41.889Z,2.30
2022-08-26T19:26:10.828Z,1.73
2022-08-26T19:28:40.623Z,2.67
2022-08-26T19:31:10.678Z,1.73
2022-08-26T19:33:40.164Z,1.80
2022-08-26T19:36:14.087Z,1.87
2022-08-26T19:38:43.944Z,2.13
2022-08-26T19:41:13.531Z,2.00
2022-08-26T19:43:41.901Z,1.93
2022-08-26T19:46:11.870Z,2.73
2022-08-26T19:48:39.957Z,2.20
2022-08-26T19:51:07.821Z,2.03
2022-08-26T19:53:35.598Z,1.83
2022-08-26T19:56:05.080Z,2.07
2022-08-26T19:58:32.933Z,2.27
2022-08-26T20:01:00.842Z,2.17
2022-08-26T20:03:28.884Z,1.90
2022-08-26T20:05:56.832Z,3.37
2022-08-26T20:08:24.829Z,1.90
2022-08-26T20:10:53.917Z,2.33
2022-08-26T20:13:23.496Z,2.37
2022-08-26T20:15:51.346Z,2.30
2022-08-26T20:18:36.740Z,2.40
2022-08-26T20:21:22.046Z,2.27
2022-08-26T20:23:51.359Z,2.97
2022-08-26T20:26:19.285Z,2.47
2022-08-26T20:28:50.941Z,2.23
2022-08-26T20:31:19.387Z,2.60
2022-08-26T20:33:48.065Z,2.50
2022-08-26T20:36:16.896Z,3.13
2022-08-26T20:38:45.137Z,2.50
2022-08-26T20:41:13.210Z,2.50
2022-08-26T20:43:42.604Z,2.73
2022-08-26T20:46:17.905Z,3.03
2022-08-26T20:48:47.764Z,2.80
2022-08-26T20:51:16.562Z,3.20
2022-08-26T20:53:45.194Z,2.80
2022-08-26T20:56:14.625Z,3.20
2022-08-26T20:58:43.045Z,3.30
2022-08-26T21:01:18.777Z,2.80
2022-08-26T21:03:47.800Z,3.23
2022-08-26T21:06:15.667Z,3.37
2022-08-26T21:08:43.597Z,3.10
2022-08-26T21:11:12.787Z,3.30
2022-08-26T21:14:03.420Z,3.57
2022-08-26T21:16:30.200Z,2.83
2022-08-26T21:19:00.332Z,3.70
2022-08-26T21:21:29.066Z,4.43
2022-08-26T21:23:57.540Z,4.07
2022-08-26T21:26:25.691Z,3.00
2022-08-26T21:28:53.867Z,2.80
2022-08-26T21:31:24.058Z,2.87
2022-08-26T21:33:53.459Z,2.60
2022-08-26T21:36:21.417Z,3.00
2022-08-26T21:38:49.580Z,2.63
2022-08-26T21:41:21.958Z,3.07
2022-08-26T21:43:51.616Z,2.47
2022-08-26T21:46:22.243Z,2.83
2022-08-26T21:48:52.896Z,3.07
2022-08-26T21:51:23.782Z,3.40
2022-08-26T21:53:52.736Z,4.27
2022-08-26T21:56:22.107Z,2.87
2022-08-26T21:58:50.268Z,3.40
2022-08-26T22:01:22.813Z,3.70
2022-08-26T22:03:52.370Z,3.80
2022-08-26T22:06:23.957Z,3.70
2022-08-26T22:08:52.596Z,3.87
2022-08-26T22:11:21.095Z,4.20
2022-08-26T22:13:51.437Z,3.53
2022-08-26T22:16:19.473Z,4.20
2022-08-26T22:18:47.415Z,3.97
2022-08-26T22:21:23.656Z,3.27
2022-08-26T22:23:57.992Z,3.37
2022-08-26T22:26:29.067Z,3.80
2022-08-26T22:28:58.999Z,3.50
2022-08-26T22:31:36.936Z,4.03
2022-08-26T22:34:08.169Z,3.70
2022-08-26T22:36:39.836Z,3.60
2022-08-26T22:39:13.938Z,4.00
2022-08-26T22:41:42.902Z,4.10
2022-08-26T22:44:11.537Z,3.57
2022-08-26T22:46:39.911Z,4.03
2022-08-26T22:49:09.901Z,4.50
2022-08-26T22:51:37.804Z,3.67
2022-08-26T22:54:06.645Z,3.50
2022-08-26T22:56:36.265Z,4.00
2022-08-26T23:01:42.633Z,4.50
2022-08-26T23:04:10.998Z,3.97
2022-08-26T23:06:40.865Z,4.07
2022-08-26T23:09:09.473Z,3.67
2022-08-26T23:11:39.849Z,4.03
2022-08-26T23:14:11.049Z,3.73
2022-08-26T23:16:40.664Z,3.77
2022-08-26T23:19:08.973Z,4.27
2022-08-26T23:21:36.830Z,4.20
2022-08-26T23:24:05.399Z,3.57
2022-08-26T23:26:33.942Z,3.50
2022-08-26T23:29:03.387Z,3.33
2022-08-26T23:31:32.232Z,3.50
2022-08-26T23:34:17.753Z,3.90
2022-08-26T23:36:46.284Z,3.77
2022-08-26T23:39:15.016Z,3.53
2022-08-26T23:41:43.141Z,3.27
2022-08-26T23:44:13.293Z,3.60
2022-08-26T23:46:41.183Z,3.90
2022-08-26T23:49:09.304Z,3.30
2022-08-26T23:51:55.555Z,3.63
2022-08-26T23:54:24.014Z,3.57
2022-08-26T23:56:51.855Z,2.80
2022-08-26T23:59:21.466Z,3.40
